createdAt,value
2017-04-07T00:00:15.966Z,21.56
2017-04-07T00:01:29.221Z,21.54
2017-04-07T00:02:42.452Z,21.64
2017-04-07T00:03:55.691Z,21.65
2017-04-07T00:05:08.928Z,21.64
2017-04-07T00:06:22.168Z,21.75
2017-04-07T00:07:34.908Z,21.75
2017-04-07T00:08:48.157Z,21.72
2017-04-07T00:10:01.418Z,21.72
2017-04-07T00:11:14.151Z,21.72
2017-04-07T00:12:27.398Z,21.75
2017-04-07T00:13:40.639Z,21.75
2017-04-07T00:14:53.870Z,21.72
2017-04-07T00:16:06.652Z,21.8
2017-04-07T00:17:19.891Z,21.84
2017-04-07T00:18:33.128Z,21.9
2017-04-07T00:19:46.384Z,21.88
2017-04-07T00:20:59.108Z,21.83
2017-04-07T00:22:11.845Z,21.86
2017-04-07T00:23:25.102Z,21.77
2017-04-07T00:24:38.320Z,21.8
2017-04-07T00:25:51.560Z,21.75
2017-04-07T00:27:05.002Z,21.82
2017-04-07T00:28:18.255Z,21.75
2017-04-07T00:29:31.562Z,21.84
2017-04-07T00:30:44.824Z,21.79
2017-04-07T00:31:58.081Z,21.72
2017-04-07T00:33:11.335Z,21.69
2017-04-07T00:34:24.106Z,21.77
2017-04-07T00:35:36.862Z,21.8
2017-04-07T00:36:50.140Z,21.84
2017-04-07T00:38:03.404Z,21.83
2017-04-07T00:39:16.126Z,21.91
2017-04-07T00:40:29.411Z,21.9
2017-04-07T00:41:42.687Z,21.79
2017-04-07T00:42:55.974Z,21.84
2017-04-07T00:44:08.731Z,21.84
2017-04-07T00:45:21.501Z,21.88
2017-04-07T00:46:34.762Z,21.91
2017-04-07T00:47:48.006Z,21.92
2017-04-07T00:49:01.255Z,21.91
2017-04-07T00:50:14.503Z,21.91
2017-04-07T00:51:27.805Z,21.91
2017-04-07T00:52:41.087Z,21.84
2017-04-07T00:53:53.812Z,21.88
2017-04-07T00:55:07.066Z,21.92
2017-04-07T00:56:20.343Z,21.92
2017-04-07T00:57:33.573Z,21.83
2017-04-07T00:58:46.324Z,21.91
2017-04-07T00:59:59.566Z,21.86
2017-04-07T01:01:12.817Z,21.98
2017-04-07T01:02:26.084Z,21.9
2017-04-07T01:03:39.322Z,21.9
2017-04-07T01:04:52.563Z,21.88
2017-04-07T01:06:05.787Z,21.86
2017-04-07T01:07:18.997Z,21.83
2017-04-07T01:08:32.248Z,21.77
2017-04-07T01:09:44.981Z,21.58
2017-04-07T01:10:58.213Z,21.42
2017-04-07T01:12:11.485Z,21.19
2017-04-07T01:13:24.727Z,21.12
2017-04-07T01:14:37.992Z,21.01
2017-04-07T01:15:51.258Z,20.89
2017-04-07T01:17:04.036Z,20.79
2017-04-07T01:18:16.757Z,20.82
2017-04-07T01:19:29.998Z,20.67
2017-04-07T01:20:43.235Z,20.58
2017-04-07T01:21:56.519Z,20.47
2017-04-07T01:23:09.773Z,20.5
2017-04-07T01:24:23.040Z,20.47
2017-04-07T01:25:35.757Z,20.29
2017-04-07T01:26:49.019Z,20.21
2017-04-07T01:28:02.297Z,20.24
2017-04-07T01:29:15.525Z,20.24
2017-04-07T01:30:28.771Z,20.28
2017-04-07T01:31:42.036Z,20.21
2017-04-07T01:32:55.260Z,20.23
2017-04-07T01:34:08.532Z,20.28
2017-04-07T01:35:21.776Z,20.31
2017-04-07T01:36:35.015Z,20.33
2017-04-07T01:37:47.849Z,20.23
2017-04-07T01:39:01.089Z,20.18
2017-04-07T01:40:14.328Z,20.21
2017-04-07T01:41:27.558Z,20.13
2017-04-07T01:42:40.793Z,20.13
2017-04-07T01:43:54.034Z,20.06
2017-04-07T01:45:07.282Z,19.99
2017-04-07T01:46:20.520Z,20.06
2017-04-07T01:47:33.824Z,20.14
2017-04-07T01:48:47.086Z,20.11
2017-04-07T01:50:00.344Z,20.13
2017-04-07T01:51:13.078Z,19.99
2017-04-07T01:52:26.299Z,19.94
2017-04-07T01:53:39.547Z,20.02
2017-04-07T01:54:52.302Z,19.98
2017-04-07T01:56:05.606Z,20.1
2017-04-07T01:57:18.865Z,20.13
2017-04-07T01:58:32.120Z,19.96
2017-04-07T01:59:45.352Z,19.74
2017-04-07T02:00:58.586Z,19.65
2017-04-07T02:02:11.853Z,19.71
2017-04-07T02:03:25.161Z,19.54
2017-04-07T02:04:38.415Z,19.31
2017-04-07T02:05:50.621Z,19.21
2017-04-07T02:07:03.923Z,19.23
2017-04-07T02:08:17.219Z,19.19
2017-04-07T02:09:30.465Z,19.18
2017-04-07T02:10:43.199Z,19.02
2017-04-07T02:11:55.415Z,19.08
2017-04-07T02:13:08.163Z,19
2017-04-07T02:14:20.878Z,18.91
2017-04-07T02:15:34.126Z,18.99
2017-04-07T02:16:47.355Z,18.99
2017-04-07T02:18:00.601Z,18.95
2017-04-07T02:19:13.825Z,18.88
2017-04-07T02:20:27.115Z,18.85
2017-04-07T02:21:40.369Z,18.87
2017-04-07T02:22:53.603Z,18.85
2017-04-07T02:24:06.827Z,18.9
2017-04-07T02:25:20.130Z,18.82
2017-04-07T02:26:33.394Z,18.88
2017-04-07T02:27:46.653Z,18.91
2017-04-07T02:28:59.390Z,18.88
2017-04-07T02:30:11.622Z,18.98
2017-04-07T02:31:24.392Z,19.06
2017-04-07T02:32:37.668Z,19.02
2017-04-07T02:33:50.918Z,19.02
2017-04-07T02:35:03.669Z,19
2017-04-07T02:36:16.954Z,18.95
2017-04-07T02:37:30.217Z,19
2017-04-07T02:38:43.487Z,18.98
2017-04-07T02:39:56.797Z,18.94
2017-04-07T02:41:10.071Z,18.94
2017-04-07T02:42:23.290Z,18.9
2017-04-07T02:43:36.574Z,18.84
2017-04-07T02:44:49.793Z,18.87
2017-04-07T02:46:03.084Z,18.87
2017-04-07T02:47:16.318Z,18.92
2017-04-07T02:48:29.074Z,18.91
2017-04-07T02:49:42.303Z,18.87
2017-04-07T02:50:55.579Z,18.94
2017-04-07T02:52:08.870Z,18.87
2017-04-07T02:53:21.610Z,18.98
2017-04-07T02:54:34.853Z,19.02
2017-04-07T02:55:48.104Z,18.94
2017-04-07T02:57:00.840Z,18.94
2017-04-07T02:58:14.122Z,18.95
2017-04-07T02:59:27.396Z,18.9
2017-04-07T03:00:40.633Z,19.02
2017-04-07T03:01:53.401Z,18.98
2017-04-07T03:03:06.685Z,18.99
2017-04-07T03:04:19.949Z,18.98
2017-04-07T03:05:33.232Z,19.04
2017-04-07T03:06:46.496Z,18.95
2017-04-07T03:07:59.787Z,18.98
2017-04-07T03:09:12.038Z,18.99
2017-04-07T03:10:25.262Z,18.88
2017-04-07T03:11:38.552Z,18.98
2017-04-07T03:12:51.814Z,18.91
2017-04-07T03:14:05.107Z,18.85
2017-04-07T03:15:18.346Z,18.84
2017-04-07T03:16:31.608Z,18.81
2017-04-07T03:17:44.369Z,18.76
2017-04-07T03:18:57.644Z,18.81
2017-04-07T03:20:10.907Z,18.78
2017-04-07T03:21:23.680Z,18.8
2017-04-07T03:22:36.961Z,18.82
2017-04-07T03:23:50.213Z,18.84
2017-04-07T03:25:03.450Z,18.8
2017-04-07T03:26:16.212Z,18.81
2017-04-07T03:27:29.486Z,18.82
2017-04-07T03:28:42.237Z,18.78
2017-04-07T03:29:55.526Z,18.75
2017-04-07T03:31:08.807Z,18.81
2017-04-07T03:32:22.085Z,18.7
2017-04-07T03:33:34.817Z,18.82
2017-04-07T03:34:48.084Z,18.81
2017-04-07T03:36:01.305Z,18.81
2017-04-07T03:37:14.049Z,18.91
2017-04-07T03:38:27.311Z,18.84
2017-04-07T03:39:40.060Z,18.98
2017-04-07T03:40:53.318Z,18.98
2017-04-07T03:42:06.088Z,19.02
2017-04-07T03:43:19.334Z,18.95
2017-04-07T03:44:32.067Z,18.95
2017-04-07T03:45:45.299Z,19
2017-04-07T03:46:58.550Z,18.88
2017-04-07T03:48:11.961Z,19
2017-04-07T03:49:25.199Z,19.06
2017-04-07T03:50:38.496Z,19.06
2017-04-07T03:51:51.284Z,18.91
2017-04-07T03:53:04.579Z,19.04
2017-04-07T03:54:17.853Z,18.94
2017-04-07T03:55:31.094Z,19.07
2017-04-07T03:56:44.357Z,19.02
2017-04-07T03:57:57.608Z,18.99
2017-04-07T03:59:10.877Z,18.92
2017-04-07T04:00:24.136Z,19
2017-04-07T04:01:37.356Z,18.98
2017-04-07T04:02:50.618Z,18.98
2017-04-07T04:04:03.929Z,19.1
2017-04-07T04:05:17.181Z,18.99
2017-04-07T04:06:30.500Z,19.06
2017-04-07T04:07:43.736Z,19.06
2017-04-07T04:08:56.998Z,19.11
2017-04-07T04:10:10.289Z,19.11
2017-04-07T04:11:23.571Z,19.14
2017-04-07T04:12:36.807Z,19.18
2017-04-07T04:13:49.561Z,19.14
2017-04-07T04:15:02.272Z,19.11
2017-04-07T04:16:15.514Z,19.1
2017-04-07T04:17:28.726Z,19.1
2017-04-07T04:18:42.020Z,19.07
2017-04-07T04:19:55.268Z,19.1
2017-04-07T04:21:08.526Z,19.08
2017-04-07T04:22:21.784Z,19.02
2017-04-07T04:23:35.028Z,19.08
2017-04-07T04:24:48.289Z,19
2017-04-07T04:26:01.577Z,19.07
2017-04-07T04:27:14.822Z,18.99
2017-04-07T04:28:28.061Z,19.07
2017-04-07T04:29:41.315Z,19
2017-04-07T04:30:54.558Z,19.04
2017-04-07T04:32:07.807Z,19.06
2017-04-07T04:33:21.045Z,19.08
2017-04-07T04:34:34.270Z,19.1
2017-04-07T04:35:47.560Z,19.02
2017-04-07T04:37:00.293Z,19.04
2017-04-07T04:38:13.018Z,19.08
2017-04-07T04:39:25.774Z,19.06
2017-04-07T04:40:39.042Z,19.04
2017-04-07T04:41:52.287Z,19.21
2017-04-07T04:43:05.551Z,19.14
2017-04-07T04:44:18.799Z,19.16
2017-04-07T04:45:31.566Z,19.21
2017-04-07T04:46:44.779Z,19.16
2017-04-07T04:47:58.073Z,19.22
2017-04-07T04:49:11.414Z,19.14
2017-04-07T04:50:24.646Z,19.19
2017-04-07T04:51:37.869Z,19.14
2017-04-07T04:52:51.098Z,19.11
2017-04-07T04:54:03.842Z,19.08
2017-04-07T04:55:17.102Z,19.1
2017-04-07T04:56:29.823Z,19.07
2017-04-07T04:57:43.102Z,19.04
2017-04-07T04:58:56.337Z,19.07
2017-04-07T05:00:09.081Z,19.02
2017-04-07T05:01:22.327Z,19.07
2017-04-07T05:02:35.580Z,19.02
2017-04-07T05:03:48.823Z,19.06
2017-04-07T05:05:02.091Z,19.14
2017-04-07T05:06:15.329Z,19.16
2017-04-07T05:07:28.602Z,19.19
2017-04-07T05:08:41.870Z,19.16
2017-04-07T05:09:55.111Z,19.14
2017-04-07T05:11:07.835Z,19.23
2017-04-07T05:12:21.074Z,19.19
2017-04-07T05:13:33.787Z,19.18
2017-04-07T05:14:46.527Z,19.16
2017-04-07T05:15:59.257Z,19.14
2017-04-07T05:17:11.980Z,19.29
2017-04-07T05:18:25.454Z,19.32
2017-04-07T05:19:38.721Z,19.25
2017-04-07T05:20:52.009Z,19.23
2017-04-07T05:22:05.262Z,19.29
2017-04-07T05:23:18.499Z,19.23
2017-04-07T05:24:31.716Z,19.14
2017-04-07T05:25:44.960Z,19.23
2017-04-07T05:26:58.206Z,19.23
2017-04-07T05:28:10.957Z,19.22
2017-04-07T05:29:24.197Z,19.19
2017-04-07T05:30:37.472Z,19.21
2017-04-07T05:31:50.721Z,19.18
2017-04-07T05:33:03.466Z,19.18
2017-04-07T05:34:16.712Z,19.22
2017-04-07T05:35:29.934Z,19.19
2017-04-07T05:36:43.242Z,19.18
2017-04-07T05:37:56.483Z,19.19
2017-04-07T05:39:09.778Z,19.21
2017-04-07T05:40:23.007Z,19.16
2017-04-07T05:41:36.277Z,19.18
2017-04-07T05:42:49.547Z,19.21
2017-04-07T05:44:02.828Z,19.16
2017-04-07T05:45:16.086Z,19.14
2017-04-07T05:46:29.373Z,19.16
2017-04-07T05:47:42.629Z,19.23
2017-04-07T05:48:55.880Z,19.19
2017-04-07T05:50:09.193Z,19.19
2017-04-07T05:51:22.475Z,19.25
2017-04-07T05:52:35.709Z,19.18
2017-04-07T05:53:48.927Z,19.19
2017-04-07T05:55:02.180Z,19.32
2017-04-07T05:56:15.471Z,19.28
2017-04-07T05:57:28.701Z,19.26
2017-04-07T05:58:41.924Z,19.25
2017-04-07T05:59:55.153Z,19.26
2017-04-07T06:01:07.899Z,19.25
2017-04-07T06:02:21.176Z,19.21
2017-04-07T06:03:34.405Z,19.19
2017-04-07T06:04:47.671Z,19.28
2017-04-07T06:06:00.967Z,19.31
2017-04-07T06:07:14.202Z,19.26
2017-04-07T06:08:27.472Z,19.28
2017-04-07T06:09:40.699Z,19.26
2017-04-07T06:10:53.923Z,19.25
2017-04-07T06:12:06.147Z,19.25
2017-04-07T06:13:19.431Z,19.22
2017-04-07T06:14:32.695Z,19.29
2017-04-07T06:15:45.940Z,19.26
2017-04-07T06:16:59.210Z,19.23
2017-04-07T06:18:12.466Z,19.21
2017-04-07T06:19:25.740Z,19.22
2017-04-07T06:20:38.446Z,19.23
2017-04-07T06:21:51.674Z,19.19
2017-04-07T06:23:04.435Z,19.21
2017-04-07T06:24:17.686Z,19.23
2017-04-07T06:25:30.934Z,19.18
2017-04-07T06:26:43.701Z,19.08
2017-04-07T06:27:56.930Z,19.1
2017-04-07T06:29:10.202Z,19.22
2017-04-07T06:30:23.495Z,19.18
2017-04-07T06:31:36.269Z,19.22
2017-04-07T06:32:49.523Z,19.14
2017-04-07T06:34:02.767Z,19.21
2017-04-07T06:35:16.005Z,19.22
2017-04-07T06:36:29.294Z,19.28
2017-04-07T06:37:42.557Z,19.13
2017-04-07T06:38:55.835Z,19.21
2017-04-07T06:40:08.068Z,19.16
2017-04-07T06:41:21.327Z,19.18
2017-04-07T06:42:34.061Z,19.18
2017-04-07T06:43:47.323Z,19.23
2017-04-07T06:45:00.048Z,19.25
2017-04-07T06:46:12.778Z,19.18
2017-04-07T06:47:26.015Z,19.21
2017-04-07T06:48:39.274Z,19.06
2017-04-07T06:49:52.526Z,19.11
2017-04-07T06:51:05.766Z,19.02
2017-04-07T06:52:18.500Z,19.02
2017-04-07T06:53:31.791Z,19.07
2017-04-07T06:54:45.015Z,19.07
2017-04-07T06:55:58.259Z,19.07
2017-04-07T06:57:11.487Z,19.04
2017-04-07T06:58:24.685Z,19.07
2017-04-07T06:59:37.923Z,19.04
2017-04-07T07:00:51.212Z,19
2017-04-07T07:02:04.466Z,18.99
2017-04-07T07:03:17.729Z,19.1
2017-04-07T07:04:30.979Z,19.1
2017-04-07T07:05:43.703Z,19.1
2017-04-07T07:06:56.963Z,19.07
2017-04-07T07:08:09.729Z,19.07
2017-04-07T07:09:22.978Z,19.08
2017-04-07T07:10:36.231Z,19.21
2017-04-07T07:11:48.964Z,19.21
2017-04-07T07:13:02.205Z,19.07
2017-04-07T07:14:15.464Z,19.04
2017-04-07T07:15:28.758Z,19.13
2017-04-07T07:16:41.462Z,19.18
2017-04-07T07:17:54.696Z,19.1
2017-04-07T07:19:07.465Z,19.11
2017-04-07T07:20:20.732Z,19.08
2017-04-07T07:21:33.457Z,18.98
2017-04-07T07:22:46.706Z,19.04
2017-04-07T07:23:59.960Z,18.99
2017-04-07T07:25:13.187Z,19.07
2017-04-07T07:26:26.420Z,19.08
2017-04-07T07:27:39.652Z,19.06
2017-04-07T07:28:52.897Z,19.11
2017-04-07T07:30:05.132Z,19.19
2017-04-07T07:31:18.359Z,19.16
2017-04-07T07:32:31.587Z,19.11
2017-04-07T07:33:44.313Z,19.08
2017-04-07T07:34:57.541Z,19.14
2017-04-07T07:36:10.783Z,19
2017-04-07T07:37:24.037Z,19.11
2017-04-07T07:38:36.770Z,19.22
2017-04-07T07:39:50.070Z,19.16
2017-04-07T07:41:03.316Z,19.16
2017-04-07T07:42:17.072Z,19.18
2017-04-07T07:43:30.285Z,19.16
2017-04-07T07:44:42.477Z,19.23
2017-04-07T07:45:55.773Z,19.18
2017-04-07T07:47:08.987Z,19.21
2017-04-07T07:48:22.250Z,19.08
2017-04-07T07:49:34.477Z,19.19
2017-04-07T07:50:47.689Z,19.14
2017-04-07T07:52:00.959Z,19.06
2017-04-07T07:53:14.231Z,19.06
2017-04-07T07:54:27.490Z,19.06
2017-04-07T07:55:40.736Z,19.1
2017-04-07T07:56:54.005Z,19.06
2017-04-07T07:58:06.778Z,19.1
2017-04-07T07:59:20.047Z,19.06
2017-04-07T08:00:33.303Z,18.95
2017-04-07T08:01:46.589Z,19
2017-04-07T08:02:59.348Z,18.9
2017-04-07T08:04:12.622Z,18.9
2017-04-07T08:05:25.332Z,18.88
2017-04-07T08:06:38.579Z,18.94
2017-04-07T08:07:51.266Z,18.88
2017-04-07T08:09:04.519Z,18.87
2017-04-07T08:10:17.258Z,18.87
2017-04-07T08:11:30.542Z,18.85
2017-04-07T08:12:43.836Z,18.84
2017-04-07T08:13:57.069Z,18.82
2017-04-07T08:15:10.325Z,18.81
2017-04-07T08:16:23.589Z,18.76
2017-04-07T08:17:36.813Z,18.76
2017-04-07T08:18:50.066Z,18.85
2017-04-07T08:20:02.784Z,18.73
2017-04-07T08:21:14.485Z,18.66
2017-04-07T08:22:27.756Z,18.67
2017-04-07T08:23:40.981Z,18.65
2017-04-07T08:24:54.227Z,18.65
2017-04-07T08:26:07.485Z,18.62
2017-04-07T08:27:19.722Z,18.63
2017-04-07T08:28:32.941Z,18.66
2017-04-07T08:29:46.233Z,18.62
2017-04-07T08:30:59.470Z,18.58
2017-04-07T08:32:12.203Z,18.58
2017-04-07T08:33:24.919Z,18.57
2017-04-07T08:34:38.151Z,18.6
2017-04-07T08:35:51.379Z,18.66
2017-04-07T08:37:04.656Z,18.6
2017-04-07T08:38:17.946Z,18.58
2017-04-07T08:39:31.195Z,18.65
2017-04-07T08:40:43.951Z,18.65
2017-04-07T08:41:57.188Z,18.62
2017-04-07T08:43:10.441Z,18.63
2017-04-07T08:44:23.708Z,18.62
2017-04-07T08:45:36.480Z,18.67
2017-04-07T08:46:49.220Z,18.69
2017-04-07T08:48:02.461Z,18.65
2017-04-07T08:49:15.666Z,18.66
2017-04-07T08:50:28.926Z,18.63
2017-04-07T08:51:42.183Z,18.67
2017-04-07T08:52:54.941Z,18.75
2017-04-07T08:54:07.699Z,18.76
2017-04-07T08:55:19.905Z,18.63
2017-04-07T08:56:33.151Z,18.67
2017-04-07T08:57:46.433Z,18.65
2017-04-07T08:58:59.158Z,18.76
2017-04-07T09:00:12.401Z,18.7
2017-04-07T09:01:25.102Z,18.72
2017-04-07T09:02:38.317Z,18.75
2017-04-07T09:03:51.038Z,18.66
2017-04-07T09:05:03.784Z,18.7
2017-04-07T09:06:16.547Z,18.65
2017-04-07T09:07:29.827Z,18.7
2017-04-07T09:08:43.036Z,18.72
2017-04-07T09:09:56.288Z,18.69
2017-04-07T09:11:09.524Z,18.65
2017-04-07T09:12:22.280Z,18.73
2017-04-07T09:13:35.514Z,18.63
2017-04-07T09:14:48.233Z,18.78
2017-04-07T09:16:01.457Z,18.69
2017-04-07T09:17:14.703Z,18.67
2017-04-07T09:18:27.949Z,18.67
2017-04-07T09:19:41.208Z,18.72
2017-04-07T09:20:53.981Z,18.66
2017-04-07T09:22:07.262Z,18.72
2017-04-07T09:23:20.009Z,18.66
2017-04-07T09:24:32.719Z,18.8
2017-04-07T09:25:45.979Z,18.84
2017-04-07T09:26:59.205Z,18.75
2017-04-07T09:28:12.473Z,18.85
2017-04-07T09:29:25.736Z,18.85
2017-04-07T09:30:38.999Z,18.85
2017-04-07T09:31:51.779Z,18.91
2017-04-07T09:33:05.061Z,18.9
2017-04-07T09:34:18.319Z,18.9
2017-04-07T09:35:31.084Z,18.9
2017-04-07T09:36:44.344Z,18.85
2017-04-07T09:37:57.048Z,18.94
2017-04-07T09:39:10.272Z,18.92
2017-04-07T09:40:23.544Z,18.94
2017-04-07T09:41:36.813Z,18.92
2017-04-07T09:42:50.067Z,18.9
2017-04-07T09:44:03.312Z,18.88
2017-04-07T09:45:16.292Z,18.92
2017-04-07T09:46:29.562Z,18.95
2017-04-07T09:47:42.283Z,18.95
2017-04-07T09:48:55.038Z,19.02
2017-04-07T09:50:08.305Z,18.88
2017-04-07T09:51:21.587Z,18.94
2017-04-07T09:52:34.843Z,18.9
2017-04-07T09:53:48.096Z,18.81
2017-04-07T09:55:01.347Z,18.84
2017-04-07T09:56:14.091Z,18.84
2017-04-07T09:57:26.827Z,18.91
2017-04-07T09:58:39.538Z,18.92
2017-04-07T09:59:52.788Z,18.98
2017-04-07T10:01:06.049Z,19
2017-04-07T10:02:19.318Z,18.91
2017-04-07T10:03:32.584Z,18.94
2017-04-07T10:04:45.851Z,18.92
2017-04-07T10:05:58.596Z,19
2017-04-07T10:07:11.852Z,18.98
2017-04-07T10:08:24.597Z,18.94
2017-04-07T10:09:36.806Z,18.9
2017-04-07T10:10:50.104Z,18.94
2017-04-07T10:12:02.848Z,18.98
2017-04-07T10:13:16.132Z,19.02
2017-04-07T10:14:28.857Z,18.98
2017-04-07T10:15:41.091Z,18.92
2017-04-07T10:16:53.804Z,18.99
2017-04-07T10:18:06.608Z,19.02
2017-04-07T10:19:19.368Z,19.02
2017-04-07T10:20:32.627Z,19
2017-04-07T10:21:45.966Z,19.04
2017-04-07T10:22:59.236Z,19.19
2017-04-07T10:24:12.499Z,19.21
2017-04-07T10:25:25.773Z,19.07
2017-04-07T10:26:39.010Z,19.11
2017-04-07T10:27:52.254Z,19.25
2017-04-07T10:29:05.488Z,19.26
2017-04-07T10:30:18.765Z,19.26
2017-04-07T10:31:31.988Z,19.14
2017-04-07T10:32:45.235Z,19.13
2017-04-07T10:33:57.996Z,19.18
2017-04-07T10:35:11.237Z,19.21
2017-04-07T10:36:24.486Z,19.32
2017-04-07T10:37:37.715Z,19.41
2017-04-07T10:38:49.939Z,19.5
2017-04-07T10:40:03.164Z,19.44
2017-04-07T10:41:15.923Z,19.46
2017-04-07T10:42:29.184Z,19.46
2017-04-07T10:43:42.432Z,19.55
2017-04-07T10:44:55.713Z,19.46
2017-04-07T10:46:08.936Z,19.56
2017-04-07T10:47:22.225Z,19.65
2017-04-07T10:48:34.983Z,19.58
2017-04-07T10:49:47.720Z,19.56
2017-04-07T10:51:00.967Z,19.55
2017-04-07T10:52:14.255Z,19.48
2017-04-07T10:53:27.479Z,19.56
2017-04-07T10:54:40.708Z,19.54
2017-04-07T10:55:53.474Z,19.44
2017-04-07T10:57:06.773Z,19.55
2017-04-07T10:58:20.038Z,19.69
2017-04-07T10:59:33.272Z,19.76
2017-04-07T11:00:45.474Z,19.81
2017-04-07T11:01:57.678Z,19.86
2017-04-07T11:03:10.931Z,19.99
2017-04-07T11:04:24.184Z,19.98
2017-04-07T11:05:37.413Z,20.1
2017-04-07T11:06:50.662Z,20.03
2017-04-07T11:08:03.910Z,20.1
2017-04-07T11:09:17.173Z,20.13
2017-04-07T11:10:30.439Z,19.96
2017-04-07T11:11:43.711Z,20.08
2017-04-07T11:12:56.455Z,20.01
2017-04-07T11:14:09.741Z,19.99
2017-04-07T11:15:22.993Z,19.88
2017-04-07T11:16:36.218Z,19.98
2017-04-07T11:17:49.492Z,20.14
2017-04-07T11:19:02.728Z,20.13
2017-04-07T11:20:16.030Z,20.21
2017-04-07T11:21:29.262Z,20.17
2017-04-07T11:22:42.533Z,20.2
2017-04-07T11:23:55.315Z,20.26
2017-04-07T11:25:08.581Z,20.28
2017-04-07T11:26:20.791Z,20.24
2017-04-07T11:27:34.007Z,20.26
2017-04-07T11:28:47.237Z,20.41
2017-04-07T11:29:59.954Z,20.5
2017-04-07T11:31:13.210Z,20.43
2017-04-07T11:32:25.438Z,20.43
2017-04-07T11:33:38.668Z,20.62
2017-04-07T11:34:51.427Z,20.61
2017-04-07T11:36:04.192Z,20.48
2017-04-07T11:37:16.931Z,20.67
2017-04-07T11:38:29.691Z,20.51
2017-04-07T11:39:42.967Z,20.66
2017-04-07T11:40:56.237Z,20.48
2017-04-07T11:42:08.976Z,20.58
2017-04-07T11:43:22.233Z,20.67
2017-04-07T11:44:35.797Z,20.67
2017-04-07T11:45:49.076Z,20.77
2017-04-07T11:47:02.346Z,20.92
2017-04-07T11:48:15.629Z,21.04
2017-04-07T11:49:28.842Z,21.28
2017-04-07T11:50:41.577Z,21.44
2017-04-07T11:51:54.828Z,21.75
2017-04-07T11:53:07.575Z,22.09
2017-04-07T11:54:20.311Z,22.21
2017-04-07T11:55:33.075Z,22.1
2017-04-07T11:56:46.378Z,22.06
2017-04-07T11:57:59.631Z,21.88
2017-04-07T11:59:12.392Z,21.62
2017-04-07T12:00:25.142Z,21.5
2017-04-07T12:01:38.397Z,21.27
2017-04-07T12:02:51.679Z,21.1
2017-04-07T12:04:04.406Z,21.12
2017-04-07T12:05:17.164Z,21.14
2017-04-07T12:06:29.895Z,20.92
2017-04-07T12:07:43.193Z,20.79
2017-04-07T12:08:56.429Z,20.76
2017-04-07T12:10:09.397Z,20.62
2017-04-07T12:11:22.354Z,20.52
2017-04-07T12:12:35.791Z,20.58
2017-04-07T12:13:48.508Z,20.58
2017-04-07T12:15:01.219Z,20.61
2017-04-07T12:16:14.484Z,20.58
2017-04-07T12:17:27.730Z,20.67
2017-04-07T12:18:40.471Z,20.73
2017-04-07T12:19:53.924Z,20.58
2017-04-07T12:21:06.726Z,20.61
2017-04-07T12:22:20.005Z,20.64
2017-04-07T12:23:33.348Z,20.59
2017-04-07T12:24:46.589Z,20.61
2017-04-07T12:25:59.858Z,20.55
2017-04-07T12:27:13.143Z,20.54
2017-04-07T12:28:26.407Z,20.58
2017-04-07T12:29:39.676Z,20.52
2017-04-07T12:30:52.444Z,20.7
2017-04-07T12:32:05.722Z,20.87
2017-04-07T12:33:18.998Z,20.77
2017-04-07T12:34:32.701Z,21.01
2017-04-07T12:35:45.352Z,21.07
2017-04-07T12:36:58.611Z,21.14
2017-04-07T12:38:11.874Z,21.16
2017-04-07T12:39:24.747Z,21.32
2017-04-07T12:40:37.997Z,21.35
2017-04-07T12:41:50.792Z,21.58
2017-04-07T12:43:04.055Z,21.65
2017-04-07T12:44:17.345Z,21.74
2017-04-07T12:45:30.589Z,21.61
2017-04-07T12:46:44.108Z,21.65
2017-04-07T12:47:57.349Z,21.54
2017-04-07T12:49:10.132Z,21.52
2017-04-07T12:50:22.919Z,21.43
2017-04-07T12:51:36.390Z,21.38
2017-04-07T12:52:49.667Z,21.37
2017-04-07T12:54:02.417Z,21.34
2017-04-07T12:55:15.128Z,21.4
2017-04-07T12:56:28.380Z,21.34
2017-04-07T12:57:41.594Z,21.28
2017-04-07T12:58:54.832Z,21.22
2017-04-07T13:00:07.578Z,21.34
2017-04-07T13:01:20.377Z,21.35
2017-04-07T13:02:33.605Z,21.34
2017-04-07T13:03:46.353Z,21.27
2017-04-07T13:04:59.640Z,21.24
2017-04-07T13:06:12.882Z,21.4
2017-04-07T13:07:26.159Z,21.4
2017-04-07T13:08:39.404Z,21.4
2017-04-07T13:09:52.139Z,21.34
2017-04-07T13:11:05.410Z,21.22
2017-04-07T13:12:17.621Z,21.25
2017-04-07T13:13:30.389Z,21.4
2017-04-07T13:14:43.668Z,21.44
2017-04-07T13:15:56.422Z,21.47
2017-04-07T13:17:09.197Z,21.25
2017-04-07T13:18:22.470Z,21.17
2017-04-07T13:19:35.727Z,21.22
2017-04-07T13:20:49.013Z,21.31
2017-04-07T13:22:02.249Z,21.27
2017-04-07T13:23:15.540Z,21.32
2017-04-07T13:24:28.958Z,21.34
2017-04-07T13:25:42.565Z,21.5
2017-04-07T13:26:55.851Z,21.52
2017-04-07T13:28:08.601Z,21.52
2017-04-07T13:29:21.339Z,21.54
2017-04-07T13:30:34.610Z,21.65
2017-04-07T13:31:47.845Z,21.54
2017-04-07T13:33:01.134Z,21.5
2017-04-07T13:34:14.414Z,21.32
2017-04-07T13:35:27.696Z,21.16
2017-04-07T13:36:40.951Z,21.12
2017-04-07T13:37:53.173Z,21.12
2017-04-07T13:39:06.459Z,21.14
2017-04-07T13:40:19.189Z,21.1
2017-04-07T13:41:32.447Z,21.12
2017-04-07T13:42:45.670Z,21.13
2017-04-07T13:43:58.897Z,21.12
2017-04-07T13:45:12.151Z,21.1
2017-04-07T13:46:24.918Z,21.17
2017-04-07T13:47:38.195Z,21.16
2017-04-07T13:48:50.952Z,21.14
2017-04-07T13:50:04.201Z,21.12
2017-04-07T13:51:17.451Z,21.06
2017-04-07T13:52:30.202Z,21.22
2017-04-07T13:53:43.459Z,21.16
2017-04-07T13:54:56.741Z,21.22
2017-04-07T13:56:09.983Z,21.31
2017-04-07T13:57:23.205Z,21.42
2017-04-07T13:58:36.477Z,21.35
2017-04-07T13:59:49.715Z,21.42
2017-04-07T14:01:02.494Z,21.42
2017-04-07T14:02:15.763Z,21.35
2017-04-07T14:03:28.519Z,21.32
2017-04-07T14:04:41.771Z,21.13
2017-04-07T14:05:55.000Z,21.13
2017-04-07T14:07:07.749Z,21.12
2017-04-07T14:08:21.019Z,20.94
2017-04-07T14:09:33.257Z,21.1
2017-04-07T14:10:45.987Z,21.09
2017-04-07T14:11:59.222Z,21.12
2017-04-07T14:13:12.519Z,21.1
2017-04-07T14:14:25.775Z,21.14
2017-04-07T14:15:39.053Z,21.14
2017-04-07T14:16:52.330Z,21.16
2017-04-07T14:18:05.094Z,21.22
2017-04-07T14:19:17.833Z,21.21
2017-04-07T14:20:31.054Z,21.04
2017-04-07T14:21:43.812Z,21.14
2017-04-07T14:22:57.054Z,21.03
2017-04-07T14:24:09.297Z,20.97
2017-04-07T14:25:22.600Z,21.1
2017-04-07T14:26:35.828Z,21.03
2017-04-07T14:27:49.101Z,21.07
2017-04-07T14:29:01.817Z,21.04
2017-04-07T14:30:14.555Z,20.98
2017-04-07T14:31:27.842Z,20.89
2017-04-07T14:32:40.613Z,20.82
2017-04-07T14:33:53.373Z,20.8
2017-04-07T14:35:06.611Z,20.87
2017-04-07T14:36:19.867Z,20.88
2017-04-07T14:37:33.118Z,20.92
2017-04-07T14:38:45.861Z,20.94
2017-04-07T14:39:59.144Z,20.92
2017-04-07T14:41:11.928Z,20.95
2017-04-07T14:42:24.648Z,20.99
2017-04-07T14:43:37.906Z,20.95
2017-04-07T14:44:50.639Z,20.94
2017-04-07T14:46:03.909Z,21.03
2017-04-07T14:47:17.174Z,21.16
2017-04-07T14:48:30.447Z,21.22
2017-04-07T14:49:43.711Z,21.24
2017-04-07T14:50:56.987Z,21.27
2017-04-07T14:52:10.283Z,21.25
2017-04-07T14:53:23.557Z,21.37
2017-04-07T14:54:36.288Z,21.35
2017-04-07T14:55:49.565Z,21.37
2017-04-07T14:57:02.867Z,21.47
2017-04-07T14:58:15.604Z,21.5
2017-04-07T14:59:28.859Z,21.65
2017-04-07T15:00:42.103Z,21.53
2017-04-07T15:01:54.880Z,21.46
2017-04-07T15:03:08.148Z,21.47
2017-04-07T15:04:21.403Z,21.43
2017-04-07T15:05:34.683Z,21.42
2017-04-07T15:06:47.904Z,21.47
2017-04-07T15:08:01.162Z,21.4
2017-04-07T15:09:14.442Z,21.38
2017-04-07T15:10:27.704Z,21.35
2017-04-07T15:11:40.464Z,21.25
2017-04-07T15:12:53.194Z,21.28
2017-04-07T15:14:06.447Z,21.17
2017-04-07T15:15:19.224Z,21.17
2017-04-07T15:16:32.473Z,21.13
2017-04-07T15:17:45.230Z,21.13
2017-04-07T15:18:58.489Z,21.1
2017-04-07T15:20:11.268Z,21.14
2017-04-07T15:21:24.542Z,21.12
2017-04-07T15:22:37.301Z,20.97
2017-04-07T15:23:50.617Z,21.01
2017-04-07T15:25:03.886Z,21.09
2017-04-07T15:26:17.158Z,21.14
2017-04-07T15:27:30.419Z,21.24
2017-04-07T15:28:43.170Z,21.28
2017-04-07T15:29:55.911Z,21.21
2017-04-07T15:31:09.194Z,21.24
2017-04-07T15:32:22.464Z,21.24
2017-04-07T15:33:35.184Z,21.22
2017-04-07T15:34:47.433Z,21.29
2017-04-07T15:36:00.688Z,21.21
2017-04-07T15:37:13.405Z,21.27
2017-04-07T15:38:26.643Z,21.43
2017-04-07T15:39:39.380Z,21.4
2017-04-07T15:40:52.665Z,21.49
2017-04-07T15:42:05.912Z,21.47
2017-04-07T15:43:19.230Z,21.38
2017-04-07T15:44:32.487Z,21.35
2017-04-07T15:45:45.259Z,21.22